Redding (RDD/KRDD)

Map

Destinations

Information

Location
Redding, CA
Local Time
17:16 / 5:16 pm
GMT Time
00:16 / 12:16 am
Gates
Unassigned
No FAA reported delays
METAR KRDD 222353Z 21004KT 10SM OVC075 10/08 A3002 RMK AO2 SLP163 60020 T01000083 10100 20089 55001
TAF KRDD 222325Z 2300/2324 VRB05KT P6SM VCSH BKN070 FM230300 VRB05KT P6SM BKN070 FM230600 VRB05KT P6SM SCT250 FM232100 18006KT P6SM BKN120
  • No charts available